sensor_id;sensor_type;location;lat;lon;timestamp;P1;durP1;ratioP1;P2;durP2;ratioP2
5869;SDS011;2961;47.702;9.410;2022-09-03T00:01:37;5.97;;;4.77;;
5869;SDS011;2961;47.702;9.410;2022-09-03T00:04:09;5.07;;;4.67;;
5869;SDS011;2961;47.702;9.410;2022-09-03T00:06:50;7.57;;;5.67;;
5869;SDS011;2961;47.702;9.410;2022-09-03T00:09:24;8.40;;;5.67;;
5869;SDS011;2961;47.702;9.410;2022-09-03T00:11:54;5.77;;;5.23;;
5869;SDS011;2961;47.702;9.410;2022-09-03T00:14:31;9.13;;;6.40;;
5869;SDS011;2961;47.702;9.410;2022-09-03T00:17:04;6.43;;;5.90;;
5869;SDS011;2961;47.702;9.410;2022-09-03T00:19:37;6.27;;;5.77;;
5869;SDS011;2961;47.702;9.410;2022-09-03T00:22:10;6.57;;;5.97;;
5869;SDS011;2961;47.702;9.410;2022-09-03T00:24:41;5.70;;;5.20;;
5869;SDS011;2961;47.702;9.410;2022-09-03T00:27:12;6.40;;;5.77;;
5869;SDS011;2961;47.702;9.410;2022-09-03T00:29:42;5.30;;;5.00;;
5869;SDS011;2961;47.702;9.410;2022-09-03T00:32:16;9.40;;;5.67;;
5869;SDS011;2961;47.702;9.410;2022-09-03T00:34:47;6.03;;;5.50;;
5869;SDS011;2961;47.702;9.410;2022-09-03T00:37:17;5.83;;;4.93;;
5869;SDS011;2961;47.702;9.410;2022-09-03T00:39:44;6.07;;;5.40;;
5869;SDS011;2961;47.702;9.410;2022-09-03T00:42:18;7.27;;;5.27;;
5869;SDS011;2961;47.702;9.410;2022-09-03T00:45:00;6.27;;;5.57;;
5869;SDS011;2961;47.702;9.410;2022-09-03T00:47:40;4.70;;;4.40;;
5869;SDS011;2961;47.702;9.410;2022-09-03T00:50:14;4.93;;;4.63;;
5869;SDS011;2961;47.702;9.410;2022-09-03T00:52:51;7.67;;;5.63;;
5869;SDS011;2961;47.702;9.410;2022-09-03T00:55:26;5.20;;;4.70;;
5869;SDS011;2961;47.702;9.410;2022-09-03T00:58:07;6.30;;;5.33;;
5869;SDS011;2961;47.702;9.410;2022-09-03T01:00:44;5.43;;;5.03;;
5869;SDS011;2961;47.702;9.410;2022-09-03T01:03:13;5.23;;;4.93;;
5869;SDS011;2961;47.702;9.410;2022-09-03T01:08:45;5.33;;;4.93;;
5869;SDS011;2961;47.702;9.410;2022-09-03T01:11:26;9.17;;;6.60;;
5869;SDS011;2961;47.702;9.410;2022-09-03T01:14:05;5.47;;;5.07;;
5869;SDS011;2961;47.702;9.410;2022-09-03T01:16:39;6.60;;;5.37;;
5869;SDS011;2961;47.702;9.410;2022-09-03T01:19:17;6.37;;;5.77;;
5869;SDS011;2961;47.702;9.410;2022-09-03T01:22:06;11.10;;;6.83;;
5869;SDS011;2961;47.702;9.410;2022-09-03T01:25:03;7.43;;;6.83;;
5869;SDS011;2961;47.702;9.410;2022-09-03T01:27:47;6.60;;;6.00;;
5869;SDS011;2961;47.702;9.410;2022-09-03T01:30:38;8.63;;;7.17;;
5869;SDS011;2961;47.702;9.410;2022-09-03T01:33:12;7.43;;;6.77;;
5869;SDS011;2961;47.702;9.410;2022-09-03T01:35:45;8.10;;;7.30;;
5869;SDS011;2961;47.702;9.410;2022-09-03T01:38:16;9.80;;;6.70;;
5869;SDS011;2961;47.702;9.410;2022-09-03T01:40:53;9.83;;;6.20;;
5869;SDS011;2961;47.702;9.410;2022-09-03T01:43:47;11.10;;;6.53;;
5869;SDS011;2961;47.702;9.410;2022-09-03T01:46:21;6.70;;;6.00;;
5869;SDS011;2961;47.702;9.410;2022-09-03T01:48:52;7.67;;;6.03;;
5869;SDS011;2961;47.702;9.410;2022-09-03T01:51:26;6.40;;;5.77;;
5869;SDS011;2961;47.702;9.410;2022-09-03T01:56:50;6.40;;;5.77;;
5869;SDS011;2961;47.702;9.410;2022-09-03T01:59:50;6.87;;;6.17;;
5869;SDS011;2961;47.702;9.410;2022-09-03T02:02:24;6.43;;;5.83;;
5869;SDS011;2961;47.702;9.410;2022-09-03T02:04:58;6.53;;;6.03;;
5869;SDS011;2961;47.702;9.410;2022-09-03T02:07:26;6.40;;;5.90;;
5869;SDS011;2961;47.702;9.410;2022-09-03T02:09:59;11.20;;;6.47;;
5869;SDS011;2961;47.702;9.410;2022-09-03T02:12:27;6.83;;;6.20;;
5869;SDS011;2961;47.702;9.410;2022-09-03T02:14:59;7.50;;;5.97;;
5869;SDS011;2961;47.702;9.410;2022-09-03T02:17:28;6.70;;;6.10;;
5869;SDS011;2961;47.702;9.410;2022-09-03T02:19:56;10.33;;;7.07;;
5869;SDS011;2961;47.702;9.410;2022-09-03T02:22:24;9.70;;;6.47;;
5869;SDS011;2961;47.702;9.410;2022-09-03T02:24:51;9.27;;;6.80;;
5869;SDS011;2961;47.702;9.410;2022-09-03T02:27:18;7.23;;;6.73;;
5869;SDS011;2961;47.702;9.410;2022-09-03T02:29:45;7.93;;;7.10;;
5869;SDS011;2961;47.702;9.410;2022-09-03T02:32:14;9.43;;;7.27;;
5869;SDS011;2961;47.702;9.410;2022-09-03T02:34:41;7.63;;;6.93;;
5869;SDS011;2961;47.702;9.410;2022-09-03T02:37:11;10.70;;;6.30;;
5869;SDS011;2961;47.702;9.410;2022-09-03T02:39:39;6.37;;;5.90;;
5869;SDS011;2961;47.702;9.410;2022-09-03T02:42:06;7.57;;;6.97;;
5869;SDS011;2961;47.702;9.410;2022-09-03T02:44:37;7.20;;;6.47;;
5869;SDS011;2961;47.702;9.410;2022-09-03T02:47:07;7.60;;;6.43;;
5869;SDS011;2961;47.702;9.410;2022-09-03T02:49:35;10.10;;;7.07;;
5869;SDS011;2961;47.702;9.410;2022-09-03T02:52:03;7.20;;;6.60;;
5869;SDS011;2961;47.702;9.410;2022-09-03T02:54:33;8.10;;;7.40;;
5869;SDS011;2961;47.702;9.410;2022-09-03T02:57:03;9.50;;;7.27;;
5869;SDS011;2961;47.702;9.410;2022-09-03T02:59:30;9.03;;;7.30;;
5869;SDS011;2961;47.702;9.410;2022-09-03T03:01:57;8.73;;;7.93;;
5869;SDS011;2961;47.702;9.410;2022-09-03T03:04:24;8.77;;;7.90;;
5869;SDS011;2961;47.702;9.410;2022-09-03T03:06:52;12.03;;;7.30;;
5869;SDS011;2961;47.702;9.410;2022-09-03T03:09:19;9.60;;;7.83;;
5869;SDS011;2961;47.702;9.410;2022-09-03T03:11:46;11.20;;;8.60;;
5869;SDS011;2961;47.702;9.410;2022-09-03T03:14:15;17.87;;;9.17;;
5869;SDS011;2961;47.702;9.410;2022-09-03T03:16:42;11.40;;;8.70;;
5869;SDS011;2961;47.702;9.410;2022-09-03T03:19:09;15.70;;;9.20;;
5869;SDS011;2961;47.702;9.410;2022-09-03T03:21:36;9.53;;;8.67;;
5869;SDS011;2961;47.702;9.410;2022-09-03T03:24:04;13.70;;;9.23;;
5869;SDS011;2961;47.702;9.410;2022-09-03T03:26:32;12.93;;;10.17;;
5869;SDS011;2961;47.702;9.410;2022-09-03T03:28:59;9.03;;;8.20;;
5869;SDS011;2961;47.702;9.410;2022-09-03T03:31:29;12.13;;;10.87;;
5869;SDS011;2961;47.702;9.410;2022-09-03T03:33:56;12.30;;;9.97;;
5869;SDS011;2961;47.702;9.410;2022-09-03T03:36:25;13.80;;;10.40;;
5869;SDS011;2961;47.702;9.410;2022-09-03T03:38:53;15.63;;;11.07;;
5869;SDS011;2961;47.702;9.410;2022-09-03T03:41:23;14.53;;;10.60;;
5869;SDS011;2961;47.702;9.410;2022-09-03T03:43:51;13.00;;;11.40;;
5869;SDS011;2961;47.702;9.410;2022-09-03T03:46:19;16.93;;;12.37;;
5869;SDS011;2961;47.702;9.410;2022-09-03T03:48:46;16.13;;;12.93;;
5869;SDS011;2961;47.702;9.410;2022-09-03T03:51:13;20.63;;;12.40;;
5869;SDS011;2961;47.702;9.410;2022-09-03T03:53:40;16.37;;;11.60;;
5869;SDS011;2961;47.702;9.410;2022-09-03T03:56:08;13.97;;;12.47;;
5869;SDS011;2961;47.702;9.410;2022-09-03T03:58:38;14.53;;;11.33;;
5869;SDS011;2961;47.702;9.410;2022-09-03T04:01:07;14.83;;;11.50;;
5869;SDS011;2961;47.702;9.410;2022-09-03T04:03:35;13.60;;;11.70;;
5869;SDS011;2961;47.702;9.410;2022-09-03T04:06:05;17.87;;;12.90;;
5869;SDS011;2961;47.702;9.410;2022-09-03T04:08:33;15.70;;;13.07;;
5869;SDS011;2961;47.702;9.410;2022-09-03T04:11:01;17.53;;;12.70;;
5869;SDS011;2961;47.702;9.410;2022-09-03T04:13:30;14.40;;;12.90;;
5869;SDS011;2961;47.702;9.410;2022-09-03T04:16:03;13.13;;;11.83;;
5869;SDS011;2961;47.702;9.410;2022-09-03T04:18:31;14.53;;;13.07;;
5869;SDS011;2961;47.702;9.410;2022-09-03T04:20:59;16.07;;;14.17;;
5869;SDS011;2961;47.702;9.410;2022-09-03T04:23:29;19.27;;;14.30;;
5869;SDS011;2961;47.702;9.410;2022-09-03T04:25:56;14.47;;;13.03;;
5869;SDS011;2961;47.702;9.410;2022-09-03T04:28:23;18.17;;;12.50;;
5869;SDS011;2961;47.702;9.410;2022-09-03T04:30:50;13.37;;;11.97;;
5869;SDS011;2961;47.702;9.410;2022-09-03T04:33:19;14.60;;;12.47;;
5869;SDS011;2961;47.702;9.410;2022-09-03T04:35:46;14.33;;;12.93;;
5869;SDS011;2961;47.702;9.410;2022-09-03T04:38:13;14.33;;;12.70;;
5869;SDS011;2961;47.702;9.410;2022-09-03T04:40:41;16.60;;;13.30;;
5869;SDS011;2961;47.702;9.410;2022-09-03T04:43:08;15.23;;;13.50;;
5869;SDS011;2961;47.702;9.410;2022-09-03T04:45:34;14.50;;;12.87;;
5869;SDS011;2961;47.702;9.410;2022-09-03T04:48:02;14.93;;;13.43;;
5869;SDS011;2961;47.702;9.410;2022-09-03T04:50:32;15.83;;;14.17;;
5869;SDS011;2961;47.702;9.410;2022-09-03T04:53:00;21.07;;;15.03;;
5869;SDS011;2961;47.702;9.410;2022-09-03T04:55:31;17.57;;;14.27;;
5869;SDS011;2961;47.702;9.410;2022-09-03T04:57:59;20.33;;;15.67;;
5869;SDS011;2961;47.702;9.410;2022-09-03T05:00:26;16.37;;;13.97;;
5869;SDS011;2961;47.702;9.410;2022-09-03T05:02:53;17.67;;;15.07;;
5869;SDS011;2961;47.702;9.410;2022-09-03T05:05:20;17.23;;;15.20;;
5869;SDS011;2961;47.702;9.410;2022-09-03T05:07:48;17.60;;;15.20;;
5869;SDS011;2961;47.702;9.410;2022-09-03T05:10:15;22.97;;;15.50;;
5869;SDS011;2961;47.702;9.410;2022-09-03T05:12:44;18.70;;;14.87;;
5869;SDS011;2961;47.702;9.410;2022-09-03T05:15:11;16.90;;;15.30;;
5869;SDS011;2961;47.702;9.410;2022-09-03T05:17:38;19.27;;;15.87;;
5869;SDS011;2961;47.702;9.410;2022-09-03T05:20:05;21.87;;;15.37;;
5869;SDS011;2961;47.702;9.410;2022-09-03T05:22:34;24.10;;;16.80;;
5869;SDS011;2961;47.702;9.410;2022-09-03T05:25:02;19.53;;;14.80;;
5869;SDS011;2961;47.702;9.410;2022-09-03T05:27:30;16.63;;;14.83;;
5869;SDS011;2961;47.702;9.410;2022-09-03T05:29:57;22.77;;;16.33;;
5869;SDS011;2961;47.702;9.410;2022-09-03T05:32:24;19.73;;;15.70;;
5869;SDS011;2961;47.702;9.410;2022-09-03T05:34:52;18.63;;;14.73;;
5869;SDS011;2961;47.702;9.410;2022-09-03T05:37:19;18.70;;;13.63;;
5869;SDS011;2961;47.702;9.410;2022-09-03T05:39:47;15.23;;;13.10;;
5869;SDS011;2961;47.702;9.410;2022-09-03T05:42:15;17.50;;;14.27;;
5869;SDS011;2961;47.702;9.410;2022-09-03T05:44:42;15.80;;;14.20;;
5869;SDS011;2961;47.702;9.410;2022-09-03T05:47:09;14.55;;;12.93;;
5869;SDS011;2961;47.702;9.410;2022-09-03T05:49:36;15.00;;;13.40;;
5869;SDS011;2961;47.702;9.410;2022-09-03T05:52:04;13.73;;;12.33;;
5869;SDS011;2961;47.702;9.410;2022-09-03T05:54:30;13.43;;;12.13;;
5869;SDS011;2961;47.702;9.410;2022-09-03T05:56:57;15.33;;;12.60;;
5869;SDS011;2961;47.702;9.410;2022-09-03T05:59:26;13.70;;;12.30;;
5869;SDS011;2961;47.702;9.410;2022-09-03T06:01:53;13.93;;;11.90;;
5869;SDS011;2961;47.702;9.410;2022-09-03T06:04:20;14.03;;;12.53;;
5869;SDS011;2961;47.702;9.410;2022-09-03T06:06:47;14.40;;;12.47;;
5869;SDS011;2961;47.702;9.410;2022-09-03T06:09:14;13.40;;;11.83;;
5869;SDS011;2961;47.702;9.410;2022-09-03T06:11:43;13.77;;;12.43;;
5869;SDS011;2961;47.702;9.410;2022-09-03T06:14:12;13.63;;;12.23;;
5869;SDS011;2961;47.702;9.410;2022-09-03T06:16:54;13.47;;;11.90;;
5869;SDS011;2961;47.702;9.410;2022-09-03T06:19:21;12.77;;;11.63;;
5869;SDS011;2961;47.702;9.410;2022-09-03T06:21:48;11.93;;;10.80;;
5869;SDS011;2961;47.702;9.410;2022-09-03T06:24:15;12.40;;;11.20;;
5869;SDS011;2961;47.702;9.410;2022-09-03T06:26:44;12.83;;;11.53;;
5869;SDS011;2961;47.702;9.410;2022-09-03T06:29:11;12.43;;;11.13;;
5869;SDS011;2961;47.702;9.410;2022-09-03T06:31:38;14.63;;;11.93;;
5869;SDS011;2961;47.702;9.410;2022-09-03T06:34:06;11.53;;;10.40;;
5869;SDS011;2961;47.702;9.410;2022-09-03T06:36:33;11.40;;;10.20;;
5869;SDS011;2961;47.702;9.410;2022-09-03T06:39:00;17.87;;;11.30;;
5869;SDS011;2961;47.702;9.410;2022-09-03T06:41:28;9.87;;;8.87;;
5869;SDS011;2961;47.702;9.410;2022-09-03T06:43:58;12.53;;;9.80;;
5869;SDS011;2961;47.702;9.410;2022-09-03T06:46:27;10.77;;;9.53;;
5869;SDS011;2961;47.702;9.410;2022-09-03T06:48:55;7.57;;;6.87;;
5869;SDS011;2961;47.702;9.410;2022-09-03T06:51:24;11.40;;;6.70;;
5869;SDS011;2961;47.702;9.410;2022-09-03T06:53:52;8.80;;;7.90;;
5869;SDS011;2961;47.702;9.410;2022-09-03T06:56:23;8.20;;;7.40;;
5869;SDS011;2961;47.702;9.410;2022-09-03T06:58:51;7.83;;;6.47;;
5869;SDS011;2961;47.702;9.410;2022-09-03T07:01:20;7.03;;;6.43;;
5869;SDS011;2961;47.702;9.410;2022-09-03T07:03:50;6.63;;;6.10;;
5869;SDS011;2961;47.702;9.410;2022-09-03T07:06:21;7.93;;;6.53;;
5869;SDS011;2961;47.702;9.410;2022-09-03T07:08:50;6.40;;;5.80;;
5869;SDS011;2961;47.702;9.410;2022-09-03T07:11:18;7.73;;;6.20;;
5869;SDS011;2961;47.702;9.410;2022-09-03T07:13:47;7.97;;;6.10;;
5869;SDS011;2961;47.702;9.410;2022-09-03T07:16:16;7.10;;;6.40;;
5869;SDS011;2961;47.702;9.410;2022-09-03T07:18:44;7.17;;;5.57;;
5869;SDS011;2961;47.702;9.410;2022-09-03T07:21:12;7.43;;;5.50;;
5869;SDS011;2961;47.702;9.410;2022-09-03T07:23:40;6.60;;;6.10;;
5869;SDS011;2961;47.702;9.410;2022-09-03T07:26:10;6.70;;;6.10;;
5869;SDS011;2961;47.702;9.410;2022-09-03T07:28:39;7.20;;;6.70;;
5869;SDS011;2961;47.702;9.410;2022-09-03T07:31:08;6.70;;;5.33;;
5869;SDS011;2961;47.702;9.410;2022-09-03T07:33:37;6.87;;;5.33;;
5869;SDS011;2961;47.702;9.410;2022-09-03T07:36:05;7.97;;;5.50;;
5869;SDS011;2961;47.702;9.410;2022-09-03T07:38:33;6.33;;;5.83;;
5869;SDS011;2961;47.702;9.410;2022-09-03T07:41:01;7.37;;;6.63;;
5869;SDS011;2961;47.702;9.410;2022-09-03T07:43:33;6.83;;;6.27;;
5869;SDS011;2961;47.702;9.410;2022-09-03T07:46:04;8.00;;;7.20;;
5869;SDS011;2961;47.702;9.410;2022-09-03T07:48:31;6.67;;;6.03;;
5869;SDS011;2961;47.702;9.410;2022-09-03T07:50:58;6.87;;;6.37;;
5869;SDS011;2961;47.702;9.410;2022-09-03T07:53:26;6.30;;;5.70;;
5869;SDS011;2961;47.702;9.410;2022-09-03T07:55:53;6.57;;;5.97;;
5869;SDS011;2961;47.702;9.410;2022-09-03T07:58:27;5.87;;;5.47;;
5869;SDS011;2961;47.702;9.410;2022-09-03T08:00:55;6.40;;;5.77;;
5869;SDS011;2961;47.702;9.410;2022-09-03T08:03:22;6.40;;;5.90;;
5869;SDS011;2961;47.702;9.410;2022-09-03T08:05:49;5.67;;;5.17;;
5869;SDS011;2961;47.702;9.410;2022-09-03T08:08:16;5.10;;;4.60;;
5869;SDS011;2961;47.702;9.410;2022-09-03T08:10:43;5.40;;;4.40;;
5869;SDS011;2961;47.702;9.410;2022-09-03T08:13:09;4.33;;;3.93;;
5869;SDS011;2961;47.702;9.410;2022-09-03T08:15:36;4.00;;;3.60;;
5869;SDS011;2961;47.702;9.410;2022-09-03T08:18:08;3.53;;;2.70;;
5869;SDS011;2961;47.702;9.410;2022-09-03T08:20:35;4.60;;;3.20;;
5869;SDS011;2961;47.702;9.410;2022-09-03T08:23:03;6.57;;;3.13;;
5869;SDS011;2961;47.702;9.410;2022-09-03T08:25:30;4.30;;;2.80;;
5869;SDS011;2961;47.702;9.410;2022-09-03T08:27:57;3.07;;;2.87;;
5869;SDS011;2961;47.702;9.410;2022-09-03T08:30:24;2.70;;;2.60;;
5869;SDS011;2961;47.702;9.410;2022-09-03T08:32:51;3.23;;;2.90;;
5869;SDS011;2961;47.702;9.410;2022-09-03T08:35:20;2.90;;;2.80;;
5869;SDS011;2961;47.702;9.410;2022-09-03T08:37:47;2.70;;;2.50;;
5869;SDS011;2961;47.702;9.410;2022-09-03T08:40:17;3.63;;;2.57;;
5869;SDS011;2961;47.702;9.410;2022-09-03T08:42:48;5.13;;;2.70;;
5869;SDS011;2961;47.702;9.410;2022-09-03T08:45:24;3.07;;;2.70;;
5869;SDS011;2961;47.702;9.410;2022-09-03T08:47:54;2.40;;;2.30;;
5869;SDS011;2961;47.702;9.410;2022-09-03T08:50:30;2.73;;;2.63;;
5869;SDS011;2961;47.702;9.410;2022-09-03T08:53:02;3.33;;;2.50;;
5869;SDS011;2961;47.702;9.410;2022-09-03T08:55:34;3.17;;;2.77;;
5869;SDS011;2961;47.702;9.410;2022-09-03T08:58:08;2.10;;;2.00;;
5869;SDS011;2961;47.702;9.410;2022-09-03T09:00:40;2.43;;;2.33;;
5869;SDS011;2961;47.702;9.410;2022-09-03T09:06:16;2.40;;;2.30;;
5869;SDS011;2961;47.702;9.410;2022-09-03T09:08:52;2.63;;;1.90;;
5869;SDS011;2961;47.702;9.410;2022-09-03T09:11:32;2.10;;;2.00;;
5869;SDS011;2961;47.702;9.410;2022-09-03T09:14:13;2.20;;;2.10;;
5869;SDS011;2961;47.702;9.410;2022-09-03T09:16:46;2.50;;;2.30;;
5869;SDS011;2961;47.702;9.410;2022-09-03T09:19:24;3.23;;;2.03;;
5869;SDS011;2961;47.702;9.410;2022-09-03T09:22:06;2.07;;;1.97;;
5869;SDS011;2961;47.702;9.410;2022-09-03T09:24:37;3.40;;;2.47;;
5869;SDS011;2961;47.702;9.410;2022-09-03T09:27:06;7.17;;;2.27;;
5869;SDS011;2961;47.702;9.410;2022-09-03T09:29:37;2.43;;;2.23;;
5869;SDS011;2961;47.702;9.410;2022-09-03T09:32:06;2.00;;;1.90;;
5869;SDS011;2961;47.702;9.410;2022-09-03T09:34:36;1.53;;;1.53;;
5869;SDS011;2961;47.702;9.410;2022-09-03T09:37:07;1.87;;;1.73;;
5869;SDS011;2961;47.702;9.410;2022-09-03T09:39:37;2.20;;;2.10;;
5869;SDS011;2961;47.702;9.410;2022-09-03T09:42:05;2.70;;;2.07;;
5869;SDS011;2961;47.702;9.410;2022-09-03T09:44:35;1.80;;;1.70;;
5869;SDS011;2961;47.702;9.410;2022-09-03T09:47:04;2.10;;;2.00;;
5869;SDS011;2961;47.702;9.410;2022-09-03T09:49:34;2.40;;;2.27;;
5869;SDS011;2961;47.702;9.410;2022-09-03T09:52:08;1.23;;;1.23;;
5869;SDS011;2961;47.702;9.410;2022-09-03T09:55:23;1.80;;;1.70;;
5869;SDS011;2961;47.702;9.410;2022-09-03T09:57:52;1.97;;;1.87;;
5869;SDS011;2961;47.702;9.410;2022-09-03T10:00:18;2.07;;;1.97;;
5869;SDS011;2961;47.702;9.410;2022-09-03T10:02:46;2.50;;;2.03;;
5869;SDS011;2961;47.702;9.410;2022-09-03T10:05:18;7.90;;;1.87;;
5869;SDS011;2961;47.702;9.410;2022-09-03T10:07:53;1.57;;;1.57;;
5869;SDS011;2961;47.702;9.410;2022-09-03T10:10:20;1.77;;;1.67;;
5869;SDS011;2961;47.702;9.410;2022-09-03T10:12:52;1.50;;;1.50;;
5869;SDS011;2961;47.702;9.410;2022-09-03T10:15:26;1.30;;;1.30;;
5869;SDS011;2961;47.702;9.410;2022-09-03T10:18:01;1.50;;;1.50;;
5869;SDS011;2961;47.702;9.410;2022-09-03T10:20:34;1.93;;;1.83;;
5869;SDS011;2961;47.702;9.410;2022-09-03T10:23:12;1.63;;;1.53;;
5869;SDS011;2961;47.702;9.410;2022-09-03T10:25:46;1.40;;;1.30;;
5869;SDS011;2961;47.702;9.410;2022-09-03T10:28:21;3.90;;;1.70;;
5869;SDS011;2961;47.702;9.410;2022-09-03T10:30:56;1.63;;;1.53;;
5869;SDS011;2961;47.702;9.410;2022-09-03T10:33:41;1.73;;;1.63;;
5869;SDS011;2961;47.702;9.410;2022-09-03T10:36:14;1.63;;;1.43;;
5869;SDS011;2961;47.702;9.410;2022-09-03T10:38:46;1.43;;;1.43;;
5869;SDS011;2961;47.702;9.410;2022-09-03T10:41:21;4.53;;;1.77;;
5869;SDS011;2961;47.702;9.410;2022-09-03T10:47:02;6.80;;;3.40;;
5869;SDS011;2961;47.702;9.410;2022-09-03T10:49:40;3.13;;;2.93;;
5869;SDS011;2961;47.702;9.410;2022-09-03T10:52:16;8.50;;;3.40;;
5869;SDS011;2961;47.702;9.410;2022-09-03T10:54:54;2.57;;;2.37;;
5869;SDS011;2961;47.702;9.410;2022-09-03T10:57:42;3.80;;;2.80;;
5869;SDS011;2961;47.702;9.410;2022-09-03T11:00:15;6.30;;;3.10;;
5869;SDS011;2961;47.702;9.410;2022-09-03T11:02:54;10.00;;;3.50;;
5869;SDS011;2961;47.702;9.410;2022-09-03T11:05:29;3.30;;;3.10;;
5869;SDS011;2961;47.702;9.410;2022-09-03T11:08:02;3.70;;;3.40;;
5869;SDS011;2961;47.702;9.410;2022-09-03T11:10:36;3.23;;;3.03;;
5869;SDS011;2961;47.702;9.410;2022-09-03T11:13:07;3.13;;;2.90;;
5869;SDS011;2961;47.702;9.410;2022-09-03T11:15:41;3.00;;;2.80;;
5869;SDS011;2961;47.702;9.410;2022-09-03T11:18:14;3.27;;;3.00;;
5869;SDS011;2961;47.702;9.410;2022-09-03T11:20:45;2.87;;;2.67;;
5869;SDS011;2961;47.702;9.410;2022-09-03T11:23:14;2.93;;;2.83;;
5869;SDS011;2961;47.702;9.410;2022-09-03T11:25:45;11.00;;;2.13;;
5869;SDS011;2961;47.702;9.410;2022-09-03T11:28:16;3.43;;;3.17;;
5869;SDS011;2961;47.702;9.410;2022-09-03T11:31:00;4.03;;;3.70;;
5869;SDS011;2961;47.702;9.410;2022-09-03T11:33:38;3.53;;;3.23;;
5869;SDS011;2961;47.702;9.410;2022-09-03T11:36:07;4.00;;;3.70;;
5869;SDS011;2961;47.702;9.410;2022-09-03T11:38:34;2.70;;;2.50;;
5869;SDS011;2961;47.702;9.410;2022-09-03T11:41:09;2.80;;;2.60;;
5869;SDS011;2961;47.702;9.410;2022-09-03T11:43:39;6.80;;;3.60;;
5869;SDS011;2961;47.702;9.410;2022-09-03T11:46:10;4.77;;;4.37;;
5869;SDS011;2961;47.702;9.410;2022-09-03T11:48:40;5.53;;;4.80;;
5869;SDS011;2961;47.702;9.410;2022-09-03T11:51:16;4.20;;;3.83;;
5869;SDS011;2961;47.702;9.410;2022-09-03T11:53:54;3.57;;;3.27;;
5869;SDS011;2961;47.702;9.410;2022-09-03T11:56:23;3.33;;;3.10;;
5869;SDS011;2961;47.702;9.410;2022-09-03T11:58:58;7.10;;;2.90;;
5869;SDS011;2961;47.702;9.410;2022-09-03T12:01:42;4.17;;;3.87;;
5869;SDS011;2961;47.702;9.410;2022-09-03T12:04:12;3.77;;;3.50;;
5869;SDS011;2961;47.702;9.410;2022-09-03T12:06:46;3.43;;;3.23;;
5869;SDS011;2961;47.702;9.410;2022-09-03T12:09:32;4.87;;;4.40;;
5869;SDS011;2961;47.702;9.410;2022-09-03T12:12:16;5.40;;;4.20;;
5869;SDS011;2961;47.702;9.410;2022-09-03T12:15:04;3.47;;;3.27;;
5869;SDS011;2961;47.702;9.410;2022-09-03T12:17:41;3.00;;;2.80;;
5869;SDS011;2961;47.702;9.410;2022-09-03T12:20:37;3.63;;;2.60;;
5869;SDS011;2961;47.702;9.410;2022-09-03T12:23:04;2.90;;;2.80;;
5869;SDS011;2961;47.702;9.410;2022-09-03T12:25:31;4.70;;;4.30;;
5869;SDS011;2961;47.702;9.410;2022-09-03T12:27:58;4.10;;;2.93;;
5869;SDS011;2961;47.702;9.410;2022-09-03T12:30:28;4.17;;;3.77;;
5869;SDS011;2961;47.702;9.410;2022-09-03T12:33:03;3.93;;;3.60;;
5869;SDS011;2961;47.702;9.410;2022-09-03T12:35:31;3.27;;;3.07;;
5869;SDS011;2961;47.702;9.410;2022-09-03T12:37:58;2.80;;;2.70;;
5869;SDS011;2961;47.702;9.410;2022-09-03T12:40:26;2.40;;;2.30;;
5869;SDS011;2961;47.702;9.410;2022-09-03T12:42:54;4.00;;;2.50;;
5869;SDS011;2961;47.702;9.410;2022-09-03T12:45:40;2.60;;;2.40;;
5869;SDS011;2961;47.702;9.410;2022-09-03T12:48:12;2.60;;;2.43;;
5869;SDS011;2961;47.702;9.410;2022-09-03T12:50:40;4.30;;;1.90;;
5869;SDS011;2961;47.702;9.410;2022-09-03T12:53:07;2.17;;;2.07;;
5869;SDS011;2961;47.702;9.410;2022-09-03T12:55:40;3.37;;;2.47;;
5869;SDS011;2961;47.702;9.410;2022-09-03T12:58:11;1.67;;;1.57;;
5869;SDS011;2961;47.702;9.410;2022-09-03T13:00:42;2.20;;;1.67;;
5869;SDS011;2961;47.702;9.410;2022-09-03T13:03:16;2.30;;;2.10;;
5869;SDS011;2961;47.702;9.410;2022-09-03T13:05:48;1.73;;;1.63;;
5869;SDS011;2961;47.702;9.410;2022-09-03T13:08:18;1.70;;;1.60;;
5869;SDS011;2961;47.702;9.410;2022-09-03T13:10:50;1.47;;;1.37;;
5869;SDS011;2961;47.702;9.410;2022-09-03T13:13:20;1.50;;;1.40;;
5869;SDS011;2961;47.702;9.410;2022-09-03T13:15:55;2.17;;;2.07;;
5869;SDS011;2961;47.702;9.410;2022-09-03T13:18:43;1.57;;;1.47;;
5869;SDS011;2961;47.702;9.410;2022-09-03T13:21:18;1.80;;;1.70;;
5869;SDS011;2961;47.702;9.410;2022-09-03T13:23:57;1.60;;;1.47;;
5869;SDS011;2961;47.702;9.410;2022-09-03T13:26:41;1.37;;;1.37;;
5869;SDS011;2961;47.702;9.410;2022-09-03T13:29:20;1.50;;;1.40;;
5869;SDS011;2961;47.702;9.410;2022-09-03T13:31:59;1.93;;;1.83;;
5869;SDS011;2961;47.702;9.410;2022-09-03T13:34:35;1.90;;;1.80;;
5869;SDS011;2961;47.702;9.410;2022-09-03T13:37:08;1.10;;;1.10;;
5869;SDS011;2961;47.702;9.410;2022-09-03T13:39:48;2.60;;;1.37;;
5869;SDS011;2961;47.702;9.410;2022-09-03T13:42:19;2.03;;;1.93;;
5869;SDS011;2961;47.702;9.410;2022-09-03T13:44:51;5.83;;;1.33;;
5869;SDS011;2961;47.702;9.410;2022-09-03T13:47:25;2.40;;;1.50;;
5869;SDS011;2961;47.702;9.410;2022-09-03T13:50:00;1.40;;;1.20;;
5869;SDS011;2961;47.702;9.410;2022-09-03T13:52:48;1.17;;;1.17;;
5869;SDS011;2961;47.702;9.410;2022-09-03T13:55:25;1.50;;;1.40;;
5869;SDS011;2961;47.702;9.410;2022-09-03T13:57:58;1.70;;;1.60;;
5869;SDS011;2961;47.702;9.410;2022-09-03T14:00:30;1.53;;;1.37;;
5869;SDS011;2961;47.702;9.410;2022-09-03T14:03:05;2.00;;;1.40;;
5869;SDS011;2961;47.702;9.410;2022-09-03T14:05:42;1.57;;;1.57;;
5869;SDS011;2961;47.702;9.410;2022-09-03T14:08:21;1.40;;;1.30;;
5869;SDS011;2961;47.702;9.410;2022-09-03T14:11:01;2.00;;;1.27;;
5869;SDS011;2961;47.702;9.410;2022-09-03T14:13:41;1.47;;;1.40;;
5869;SDS011;2961;47.702;9.410;2022-09-03T14:16:16;2.00;;;1.20;;
5869;SDS011;2961;47.702;9.410;2022-09-03T14:18:50;1.33;;;1.33;;
5869;SDS011;2961;47.702;9.410;2022-09-03T14:21:23;2.30;;;1.33;;
5869;SDS011;2961;47.702;9.410;2022-09-03T14:24:00;1.23;;;1.13;;
5869;SDS011;2961;47.702;9.410;2022-09-03T14:26:32;1.23;;;1.23;;
5869;SDS011;2961;47.702;9.410;2022-09-03T14:29:01;1.23;;;1.23;;
5869;SDS011;2961;47.702;9.410;2022-09-03T14:31:34;1.20;;;1.20;;
5869;SDS011;2961;47.702;9.410;2022-09-03T14:34:17;3.80;;;1.53;;
5869;SDS011;2961;47.702;9.410;2022-09-03T14:36:59;2.33;;;1.43;;
5869;SDS011;2961;47.702;9.410;2022-09-03T14:39:32;1.10;;;1.10;;
5869;SDS011;2961;47.702;9.410;2022-09-03T14:42:20;1.50;;;1.40;;
5869;SDS011;2961;47.702;9.410;2022-09-03T14:48:29;1.27;;;1.20;;
5869;SDS011;2961;47.702;9.410;2022-09-03T14:51:11;2.20;;;1.23;;
5869;SDS011;2961;47.702;9.410;2022-09-03T14:53:52;1.30;;;1.20;;
5869;SDS011;2961;47.702;9.410;2022-09-03T14:56:39;7.83;;;1.70;;
5869;SDS011;2961;47.702;9.410;2022-09-03T15:02:13;1.50;;;1.50;;
5869;SDS011;2961;47.702;9.410;2022-09-03T15:05:05;2.00;;;1.50;;
5869;SDS011;2961;47.702;9.410;2022-09-03T15:07:39;4.60;;;1.77;;
5869;SDS011;2961;47.702;9.410;2022-09-03T15:10:16;1.87;;;1.30;;
5869;SDS011;2961;47.702;9.410;2022-09-03T15:12:50;7.73;;;1.53;;
5869;SDS011;2961;47.702;9.410;2022-09-03T15:15:18;1.27;;;1.17;;
5869;SDS011;2961;47.702;9.410;2022-09-03T15:17:59;1.20;;;1.20;;
5869;SDS011;2961;47.702;9.410;2022-09-03T15:20:35;3.27;;;1.27;;
5869;SDS011;2961;47.702;9.410;2022-09-03T15:23:24;1.20;;;1.20;;
5869;SDS011;2961;47.702;9.410;2022-09-03T15:29:16;1.30;;;1.30;;
5869;SDS011;2961;47.702;9.410;2022-09-03T15:32:06;1.23;;;1.07;;
5869;SDS011;2961;47.702;9.410;2022-09-03T15:34:55;1.53;;;1.43;;
5869;SDS011;2961;47.702;9.410;2022-09-03T15:37:37;1.10;;;1.10;;
5869;SDS011;2961;47.702;9.410;2022-09-03T15:40:15;1.47;;;1.40;;
5869;SDS011;2961;47.702;9.410;2022-09-03T15:42:55;1.57;;;1.47;;
5869;SDS011;2961;47.702;9.410;2022-09-03T15:45:34;1.60;;;1.50;;
5869;SDS011;2961;47.702;9.410;2022-09-03T15:48:09;1.00;;;1.00;;
5869;SDS011;2961;47.702;9.410;2022-09-03T15:50:49;1.30;;;1.20;;
5869;SDS011;2961;47.702;9.410;2022-09-03T15:53:24;1.53;;;1.43;;
5869;SDS011;2961;47.702;9.410;2022-09-03T15:56:01;1.00;;;1.00;;
5869;SDS011;2961;47.702;9.410;2022-09-03T15:58:37;1.30;;;1.30;;
5869;SDS011;2961;47.702;9.410;2022-09-03T16:01:12;1.20;;;1.20;;
5869;SDS011;2961;47.702;9.410;2022-09-03T16:03:52;1.17;;;1.17;;